createdAt,value
2017-09-19T00:02:13.282Z,23.50
2017-09-19T00:04:43.767Z,21.27
2017-09-19T00:07:16.359Z,22.60
2017-09-19T00:09:47.463Z,21.37
2017-09-19T00:12:20.474Z,20.40
2017-09-19T00:14:52.045Z,24.10
2017-09-19T00:17:25.132Z,23.90
2017-09-19T00:19:56.952Z,19.90
2017-09-19T00:22:28.420Z,23.50
2017-09-19T00:24:59.757Z,23.20
2017-09-19T00:27:29.909Z,21.30
2017-09-19T00:30:00.077Z,20.40
2017-09-19T00:32:32.446Z,23.50
2017-09-19T00:35:04.264Z,21.77
2017-09-19T00:37:37.889Z,22.10
2017-09-19T00:40:12.843Z,20.63
2017-09-19T00:42:49.213Z,21.90
2017-09-19T00:45:19.493Z,23.20
2017-09-19T00:47:53.542Z,22.80
2017-09-19T00:50:26.782Z,24.80
2017-09-19T00:53:00.286Z,21.57
2017-09-19T00:55:32.314Z,22.93
2017-09-19T00:58:04.228Z,23.20
2017-09-19T01:00:35.913Z,24.90
2017-09-19T01:03:08.970Z,25.10
2017-09-19T01:05:41.521Z,21.07
2017-09-19T01:08:14.590Z,24.70
2017-09-19T01:10:46.865Z,22.13
2017-09-19T01:13:20.202Z,24.87
2017-09-19T01:15:53.636Z,22.70
2017-09-19T01:18:28.500Z,27.63
2017-09-19T01:20:59.964Z,24.97
2017-09-19T01:23:31.096Z,24.77
2017-09-19T01:26:01.825Z,23.37
2017-09-19T01:28:34.959Z,25.93
2017-09-19T01:31:07.962Z,24.07
2017-09-19T01:33:38.106Z,23.80
2017-09-19T01:36:10.509Z,25.50
2017-09-19T01:38:41.858Z,23.23
2017-09-19T01:41:13.388Z,22.97
2017-09-19T01:43:46.381Z,25.57
2017-09-19T01:46:22.002Z,25.50
2017-09-19T01:48:52.503Z,24.60
2017-09-19T01:51:23.030Z,25.30
2017-09-19T01:53:53.332Z,25.67
2017-09-19T01:56:26.320Z,25.27
2017-09-19T01:58:59.766Z,20.97
2017-09-19T02:01:32.607Z,20.60
2017-09-19T02:04:05.590Z,20.07
2017-09-19T02:06:36.536Z,23.50
2017-09-19T02:09:06.926Z,19.30
2017-09-19T02:11:38.108Z,21.27
2017-09-19T02:14:08.404Z,23.93
2017-09-19T02:16:38.598Z,25.03
2017-09-19T02:19:09.753Z,21.50
2017-09-19T02:21:40.135Z,21.50
2017-09-19T02:24:10.328Z,21.60
2017-09-19T02:26:41.079Z,24.00
2017-09-19T02:29:12.076Z,22.87
2017-09-19T02:31:42.961Z,21.90
2017-09-19T02:34:13.128Z,21.83
2017-09-19T02:36:44.451Z,22.83
2017-09-19T02:39:15.299Z,21.97
2017-09-19T02:41:45.429Z,24.13
2017-09-19T02:44:16.230Z,22.13
2017-09-19T02:46:46.340Z,23.57
2017-09-19T02:49:16.779Z,20.60
2017-09-19T02:51:46.984Z,19.50
2017-09-19T02:54:17.139Z,23.37
2017-09-19T02:56:47.474Z,21.00
2017-09-19T02:59:18.640Z,18.80
2017-09-19T03:01:49.824Z,22.57
2017-09-19T03:04:26.183Z,20.87
2017-09-19T03:06:57.309Z,22.17
2017-09-19T03:09:27.616Z,23.10
2017-09-19T03:12:01.808Z,22.60
2017-09-19T03:14:34.751Z,21.93
2017-09-19T03:17:05.074Z,21.83
2017-09-19T03:19:39.807Z,22.90
2017-09-19T03:22:10.551Z,22.37
2017-09-19T03:24:40.473Z,22.20
2017-09-19T03:27:10.954Z,20.33
2017-09-19T03:29:49.757Z,23.87
2017-09-19T03:32:20.105Z,23.13
2017-09-19T03:34:50.113Z,23.97
2017-09-19T03:37:20.285Z,21.60
2017-09-19T03:39:50.324Z,24.80
2017-09-19T03:42:20.655Z,23.87
2017-09-19T03:44:50.835Z,23.37
2017-09-19T03:47:21.112Z,20.77
2017-09-19T03:49:51.414Z,22.40
2017-09-19T03:52:24.810Z,23.43
2017-09-19T03:55:03.215Z,24.03
2017-09-19T03:57:33.443Z,24.13
2017-09-19T04:00:04.288Z,22.10
2017-09-19T04:02:34.495Z,21.10
2017-09-19T04:05:04.743Z,25.23
2017-09-19T04:07:35.070Z,25.00
2017-09-19T04:10:05.363Z,26.27
2017-09-19T04:12:35.766Z,23.30
2017-09-19T04:15:17.268Z,23.50
2017-09-19T04:17:48.623Z,25.37
2017-09-19T04:20:18.843Z,23.70
2017-09-19T04:22:50.281Z,24.60
2017-09-19T04:25:22.537Z,24.70
2017-09-19T04:28:05.279Z,25.50
2017-09-19T04:30:44.749Z,28.33
2017-09-19T04:33:15.134Z,24.43
2017-09-19T04:35:47.715Z,26.97
2017-09-19T04:38:19.114Z,30.10
2017-09-19T04:40:50.023Z,26.77
2017-09-19T04:43:20.094Z,27.97
2017-09-19T04:45:50.338Z,28.27
2017-09-19T04:48:21.067Z,30.00
2017-09-19T04:50:52.380Z,28.77
2017-09-19T04:53:22.774Z,28.87
2017-09-19T04:55:53.103Z,30.90
2017-09-19T04:58:23.813Z,33.10
2017-09-19T05:00:54.425Z,31.23
2017-09-19T05:03:24.788Z,31.37
2017-09-19T05:05:55.511Z,31.23
2017-09-19T05:08:25.708Z,30.30
2017-09-19T05:10:55.992Z,29.60
2017-09-19T05:13:26.359Z,29.37
2017-09-19T05:15:57.017Z,29.30
2017-09-19T05:18:27.339Z,28.43
2017-09-19T05:20:57.717Z,29.37
2017-09-19T05:23:27.927Z,28.30
2017-09-19T05:25:58.595Z,30.43
2017-09-19T05:28:29.071Z,32.90
2017-09-19T05:30:59.671Z,32.47
2017-09-19T05:33:30.374Z,35.00
2017-09-19T05:36:00.785Z,36.10
2017-09-19T05:38:33.489Z,32.63
2017-09-19T05:41:04.820Z,31.73
2017-09-19T05:43:35.401Z,32.17
2017-09-19T05:46:06.687Z,32.13
2017-09-19T05:48:37.370Z,32.00
2017-09-19T05:51:07.923Z,34.27
2017-09-19T05:53:38.652Z,31.60
2017-09-19T05:56:11.022Z,32.73
2017-09-19T05:58:42.152Z,33.23
2017-09-19T06:01:16.857Z,31.27
2017-09-19T06:03:47.664Z,80.47
2017-09-19T06:06:18.240Z,32.80
2017-09-19T06:08:59.430Z,33.60
2017-09-19T06:11:31.244Z,33.37
2017-09-19T06:14:01.874Z,34.63
2017-09-19T06:16:32.862Z,35.30
2017-09-19T06:19:04.523Z,35.70
2017-09-19T06:21:34.941Z,34.27
2017-09-19T06:24:13.564Z,35.50
2017-09-19T06:26:49.016Z,33.40
2017-09-19T06:29:21.563Z,36.47
2017-09-19T06:31:53.306Z,35.37
2017-09-19T06:34:23.917Z,38.70
2017-09-19T06:36:56.719Z,36.70
2017-09-19T06:39:27.140Z,38.83
2017-09-19T06:41:57.793Z,34.30
2017-09-19T06:44:33.581Z,38.13
2017-09-19T06:47:05.635Z,41.03
2017-09-19T06:49:38.389Z,36.20
2017-09-19T06:52:09.632Z,36.40
2017-09-19T06:54:40.248Z,36.83
2017-09-19T06:57:11.627Z,36.73
2017-09-19T06:59:44.674Z,38.20
2017-09-19T07:02:16.979Z,37.53
2017-09-19T07:04:48.265Z,33.20
2017-09-19T07:07:21.093Z,36.67
2017-09-19T07:09:51.835Z,35.20
2017-09-19T07:12:22.454Z,35.80
2017-09-19T07:14:52.926Z,37.60
2017-09-19T07:17:32.893Z,35.47
2017-09-19T07:20:10.971Z,33.70
2017-09-19T07:22:46.246Z,35.23
2017-09-19T07:28:11.528Z,38.57
2017-09-19T07:30:49.528Z,36.80
2017-09-19T07:33:19.814Z,40.27
2017-09-19T07:36:00.821Z,38.70
2017-09-19T07:38:32.648Z,35.43
2017-09-19T07:41:03.590Z,36.07
2017-09-19T07:43:35.404Z,36.83
2017-09-19T07:46:06.948Z,38.60
2017-09-19T07:48:37.658Z,39.43
2017-09-19T07:51:11.520Z,41.77
2017-09-19T07:53:43.242Z,38.90
2017-09-19T07:56:14.295Z,38.67
2017-09-19T07:58:47.280Z,37.30
2017-09-19T08:01:17.740Z,35.33
2017-09-19T08:03:48.233Z,38.10
2017-09-19T08:06:19.242Z,36.97
2017-09-19T08:08:49.870Z,37.83
2017-09-19T08:11:20.326Z,39.07
2017-09-19T08:13:52.103Z,35.60
2017-09-19T08:16:22.508Z,34.23
2017-09-19T08:18:53.203Z,38.97
2017-09-19T08:21:23.308Z,34.10
2017-09-19T08:23:54.253Z,35.37
2017-09-19T08:26:27.217Z,34.90
2017-09-19T08:28:58.811Z,41.53
2017-09-19T08:31:29.088Z,39.23
2017-09-19T08:33:59.872Z,35.80
2017-09-19T08:36:30.943Z,32.27
2017-09-19T08:39:03.622Z,34.57
2017-09-19T08:41:40.644Z,40.07
2017-09-19T08:44:21.590Z,35.83
2017-09-19T08:47:01.421Z,36.37
2017-09-19T08:49:44.768Z,33.00
2017-09-19T08:52:27.812Z,34.80
2017-09-19T08:55:01.033Z,35.17
2017-09-19T08:57:45.169Z,32.10
2017-09-19T09:00:21.276Z,36.17
2017-09-19T09:05:42.189Z,36.57
2017-09-19T09:08:16.410Z,38.63
2017-09-19T09:10:58.074Z,33.60
2017-09-19T09:13:33.878Z,38.47
2017-09-19T09:16:11.318Z,34.07
2017-09-19T09:18:46.938Z,30.77
2017-09-19T09:21:21.865Z,29.20
2017-09-19T09:23:56.483Z,32.07
2017-09-19T09:26:29.851Z,31.70
2017-09-19T09:29:10.846Z,34.60
2017-09-19T09:31:43.780Z,34.20
2017-09-19T09:34:21.420Z,34.37
2017-09-19T09:37:00.575Z,39.30
2017-09-19T09:39:31.830Z,37.33
2017-09-19T09:42:15.318Z,39.20
2017-09-19T09:44:54.342Z,38.23
2017-09-19T09:47:27.461Z,36.80
2017-09-19T09:49:59.238Z,37.70
2017-09-19T09:52:31.119Z,34.50
2017-09-19T09:55:06.051Z,35.27
2017-09-19T09:57:59.157Z,38.87
2017-09-19T10:00:32.840Z,37.87
2017-09-19T10:03:08.120Z,39.87
2017-09-19T10:05:39.761Z,40.93
2017-09-19T10:08:11.806Z,39.43
2017-09-19T10:10:43.039Z,43.00
2017-09-19T10:13:24.533Z,45.50
2017-09-19T10:15:56.307Z,40.80
2017-09-19T10:18:28.119Z,34.03
2017-09-19T10:21:00.689Z,38.17
2017-09-19T10:23:31.318Z,38.93
2017-09-19T10:26:02.755Z,32.83
2017-09-19T10:28:34.090Z,35.30
2017-09-19T10:31:05.919Z,36.80
2017-09-19T10:33:36.816Z,37.13
2017-09-19T10:36:07.934Z,37.43
2017-09-19T10:38:38.778Z,34.67
2017-09-19T10:41:11.233Z,33.33
2017-09-19T10:43:41.880Z,37.80
2017-09-19T10:46:18.274Z,31.80
2017-09-19T10:48:50.524Z,34.03
2017-09-19T10:51:25.387Z,30.93
2017-09-19T10:53:56.208Z,32.37
2017-09-19T10:56:29.834Z,49.83
2017-09-19T10:59:03.388Z,29.47
2017-09-19T11:01:35.307Z,31.80
2017-09-19T11:04:06.947Z,30.90
2017-09-19T11:06:39.270Z,32.03
2017-09-19T11:09:15.922Z,37.07
2017-09-19T11:11:48.360Z,36.90
2017-09-19T11:14:42.590Z,37.57
2017-09-19T11:17:23.110Z,39.63
2017-09-19T11:20:05.535Z,37.50
2017-09-19T11:22:42.519Z,42.23
2017-09-19T11:25:25.793Z,43.63
2017-09-19T11:28:07.502Z,40.57
2017-09-19T11:30:43.778Z,39.97
2017-09-19T11:33:18.929Z,44.90
2017-09-19T11:35:51.586Z,40.13
2017-09-19T11:38:29.576Z,42.70
2017-09-19T11:41:01.865Z,39.93
2017-09-19T11:43:34.845Z,40.77
2017-09-19T11:46:06.696Z,36.63
2017-09-19T11:48:42.375Z,38.63
2017-09-19T11:51:16.120Z,38.67
2017-09-19T11:53:47.314Z,38.73
2017-09-19T11:56:18.861Z,33.87
2017-09-19T11:58:49.545Z,36.10
2017-09-19T12:01:21.670Z,38.20
2017-09-19T12:04:00.568Z,39.13
2017-09-19T12:06:49.339Z,40.60
2017-09-19T12:09:35.481Z,32.90
2017-09-19T12:14:44.236Z,33.67
2017-09-19T12:17:17.184Z,35.83
2017-09-19T12:19:48.934Z,37.73
2017-09-19T12:22:21.068Z,33.97
2017-09-19T12:24:52.666Z,36.00
2017-09-19T12:27:24.380Z,32.70
2017-09-19T12:29:57.148Z,39.73
2017-09-19T12:32:28.587Z,35.30
2017-09-19T12:35:01.658Z,34.50
2017-09-19T12:37:36.630Z,31.40
2017-09-19T12:40:09.964Z,35.23
2017-09-19T12:42:46.706Z,37.80
2017-09-19T12:45:19.057Z,36.87
2017-09-19T12:47:50.442Z,41.03
2017-09-19T12:50:28.243Z,36.63
2017-09-19T12:53:00.045Z,40.90
2017-09-19T12:55:32.943Z,31.60
2017-09-19T12:58:03.508Z,31.57
2017-09-19T13:00:35.037Z,26.03
2017-09-19T13:03:06.161Z,27.53
2017-09-19T13:05:47.722Z,25.50
2017-09-19T13:08:20.564Z,24.87
2017-09-19T13:10:53.396Z,22.87
2017-09-19T13:13:24.610Z,25.43
2017-09-19T13:15:59.502Z,22.40
2017-09-19T13:18:32.270Z,24.23
2017-09-19T13:21:09.042Z,36.00
2017-09-19T13:23:43.607Z,25.37
2017-09-19T13:31:14.570Z,24.90
2017-09-19T13:37:07.112Z,23.67
2017-09-19T13:39:47.800Z,21.93
2017-09-19T13:42:19.546Z,23.50
2017-09-19T13:44:50.073Z,23.00
2017-09-19T13:47:20.881Z,20.73
2017-09-19T13:49:54.321Z,21.50
2017-09-19T13:52:25.152Z,23.27
2017-09-19T13:54:56.155Z,21.30
2017-09-19T13:57:27.607Z,20.60
2017-09-19T14:00:01.720Z,20.33
2017-09-19T14:02:36.872Z,20.57
2017-09-19T14:05:07.263Z,18.10
2017-09-19T14:07:49.491Z,17.93
2017-09-19T14:10:20.785Z,19.00
2017-09-19T14:12:56.448Z,18.73
2017-09-19T14:15:53.657Z,18.67
2017-09-19T14:18:29.469Z,17.93
2017-09-19T14:21:01.785Z,21.47
2017-09-19T14:23:34.161Z,20.17
2017-09-19T14:26:09.924Z,21.00
2017-09-19T14:29:01.483Z,19.50
2017-09-19T14:38:54.846Z,18.33
2017-09-19T14:48:38.261Z,18.23
2017-09-19T14:54:59.420Z,22.07
2017-09-19T15:00:18.605Z,23.33
2017-09-19T15:02:51.950Z,22.80
2017-09-19T15:05:41.250Z,34.13
2017-09-19T15:08:12.907Z,21.93
2017-09-19T15:10:47.868Z,23.10
2017-09-19T15:13:18.909Z,20.43
2017-09-19T15:15:50.815Z,20.37
2017-09-19T15:18:24.893Z,22.40
2017-09-19T15:20:59.727Z,24.70
2017-09-19T15:23:33.120Z,22.70
2017-09-19T15:26:06.446Z,22.00
2017-09-19T15:29:25.013Z,19.67
2017-09-19T15:31:57.629Z,21.57
2017-09-19T15:34:35.144Z,20.33
2017-09-19T15:37:25.220Z,19.23
2017-09-19T15:40:16.349Z,20.80
2017-09-19T15:43:02.646Z,18.40
2017-09-19T15:46:22.885Z,19.70
2017-09-19T15:49:32.609Z,19.70
2017-09-19T15:52:23.814Z,17.10
2017-09-19T15:55:28.569Z,19.10
2017-09-19T16:04:39.735Z,18.63
2017-09-19T16:16:40.628Z,18.20
2017-09-19T16:19:16.011Z,18.53
2017-09-19T16:21:55.846Z,17.30
2017-09-19T16:24:27.860Z,17.00
2017-09-19T16:26:58.821Z,18.57
2017-09-19T16:29:37.505Z,19.50
2017-09-19T16:32:09.511Z,18.80
2017-09-19T16:34:41.825Z,16.67
2017-09-19T16:37:15.530Z,23.70
2017-09-19T16:39:46.599Z,25.07
2017-09-19T16:42:18.420Z,20.27
2017-09-19T16:44:49.506Z,22.47
2017-09-19T16:47:21.058Z,25.37
2017-09-19T16:49:52.692Z,24.00
2017-09-19T16:52:25.669Z,25.50
2017-09-19T16:54:59.117Z,20.27
2017-09-19T16:57:33.324Z,20.13
2017-09-19T17:00:05.862Z,21.50
2017-09-19T17:02:38.906Z,21.10
2017-09-19T17:05:13.217Z,23.37
2017-09-19T17:07:48.399Z,24.33
2017-09-19T17:10:19.956Z,21.70
2017-09-19T17:12:56.130Z,30.00
2017-09-19T17:15:32.586Z,26.77
2017-09-19T17:18:09.355Z,35.33
2017-09-19T17:20:42.246Z,30.90
2017-09-19T17:23:26.197Z,26.37
2017-09-19T17:26:08.377Z,23.47
2017-09-19T17:31:52.028Z,26.87
2017-09-19T17:34:23.302Z,44.33
2017-09-19T17:36:54.756Z,23.90
2017-09-19T17:39:39.004Z,27.10
2017-09-19T17:42:09.920Z,23.70
2017-09-19T17:44:41.737Z,27.03
2017-09-19T17:47:19.596Z,26.13
2017-09-19T17:49:52.419Z,50.37
2017-09-19T17:52:28.507Z,49.33
2017-09-19T17:55:01.425Z,33.53
2017-09-19T17:57:32.983Z,26.67
2017-09-19T18:00:07.129Z,39.10
2017-09-19T18:02:39.909Z,38.90
2017-09-19T18:05:14.089Z,29.43
2017-09-19T18:07:45.848Z,30.87
2017-09-19T18:10:17.596Z,27.80
2017-09-19T18:12:50.038Z,29.70
2017-09-19T18:15:21.513Z,27.27
2017-09-19T18:17:54.467Z,46.67
2017-09-19T18:20:28.597Z,41.60
2017-09-19T18:23:01.224Z,36.17
2017-09-19T18:25:33.123Z,32.90
2017-09-19T18:28:06.412Z,43.93
2017-09-19T18:30:38.613Z,37.30
2017-09-19T18:33:10.344Z,34.53
2017-09-19T18:35:46.936Z,35.43
2017-09-19T18:38:19.162Z,37.83
2017-09-19T18:40:50.526Z,31.40
2017-09-19T18:43:23.468Z,34.23
2017-09-19T18:45:57.047Z,35.10
2017-09-19T18:48:30.601Z,26.93
2017-09-19T18:51:02.983Z,29.07
2017-09-19T18:53:36.972Z,34.77
2017-09-19T18:56:08.992Z,29.93
2017-09-19T18:58:49.125Z,46.17
2017-09-19T19:01:21.025Z,34.50
2017-09-19T19:03:55.926Z,31.27
2017-09-19T19:06:32.204Z,35.40
2017-09-19T19:09:14.830Z,34.53
2017-09-19T19:11:51.665Z,41.63
2017-09-19T19:17:37.896Z,43.10
2017-09-19T19:20:34.109Z,36.57
2017-09-19T19:23:13.968Z,56.00
2017-09-19T19:25:50.553Z,35.40
2017-09-19T19:28:32.520Z,32.37
2017-09-19T19:31:04.349Z,33.77
2017-09-19T19:33:46.433Z,45.30
2017-09-19T19:36:28.923Z,40.73
2017-09-19T19:39:07.306Z,110.17
2017-09-19T19:41:43.871Z,32.80
2017-09-19T19:44:16.611Z,34.67
2017-09-19T19:46:47.029Z,34.77
2017-09-19T19:49:18.860Z,45.43
2017-09-19T19:52:02.640Z,62.70
2017-09-19T19:57:34.681Z,41.13
2017-09-19T20:00:06.446Z,46.80
2017-09-19T20:02:39.458Z,35.30
2017-09-19T20:05:14.581Z,40.53
2017-09-19T20:07:56.177Z,36.90
2017-09-19T20:10:27.216Z,40.80
2017-09-19T20:13:00.837Z,35.77
2017-09-19T20:15:35.229Z,37.67
2017-09-19T20:18:14.203Z,43.30
2017-09-19T20:20:50.018Z,46.73
2017-09-19T20:23:35.485Z,42.63
2017-09-19T20:26:09.045Z,40.77
2017-09-19T20:28:43.703Z,41.40
2017-09-19T20:31:18.253Z,40.33
2017-09-19T20:33:54.041Z,49.70
2017-09-19T20:36:28.587Z,41.40
2017-09-19T20:39:04.123Z,37.27
2017-09-19T20:41:37.587Z,42.80
2017-09-19T20:44:15.852Z,49.43
2017-09-19T20:46:52.736Z,42.70
2017-09-19T20:49:28.321Z,38.83
2017-09-19T20:51:58.956Z,38.53
2017-09-19T20:54:32.182Z,39.33
2017-09-19T20:57:10.094Z,46.30
2017-09-19T20:59:51.097Z,61.53
2017-09-19T21:02:22.496Z,51.10
2017-09-19T21:04:59.698Z,86.60
2017-09-19T21:07:36.356Z,151.47
2017-09-19T21:10:18.267Z,96.30
2017-09-19T21:12:56.610Z,67.03
2017-09-19T21:15:45.429Z,47.10
2017-09-19T21:18:21.018Z,44.97
2017-09-19T21:20:52.072Z,44.50
2017-09-19T21:23:24.488Z,106.57
2017-09-19T21:25:55.353Z,45.40
2017-09-19T21:28:27.187Z,42.23
2017-09-19T21:30:59.130Z,48.80
2017-09-19T21:33:32.098Z,45.73
2017-09-19T21:38:46.183Z,45.07
2017-09-19T21:41:16.969Z,43.63
2017-09-19T21:43:48.613Z,47.77
2017-09-19T21:46:20.531Z,64.93
2017-09-19T21:48:50.967Z,42.53
2017-09-19T21:51:33.762Z,44.40
2017-09-19T21:54:13.447Z,82.37
2017-09-19T21:57:03.863Z,73.93
2017-09-19T21:59:44.119Z,47.70
2017-09-19T22:02:40.858Z,46.33
2017-09-19T22:05:22.453Z,46.77
2017-09-19T22:08:01.061Z,55.40
2017-09-19T22:11:18.730Z,59.93
2017-09-19T22:13:51.718Z,55.93
2017-09-19T22:17:15.579Z,59.50
2017-09-19T22:20:01.489Z,71.10
2017-09-19T22:22:35.721Z,49.50
2017-09-19T22:25:18.912Z,61.87
2017-09-19T22:28:01.218Z,57.27
2017-09-19T22:30:39.769Z,50.83
2017-09-19T22:33:20.132Z,46.50
2017-09-19T22:35:50.755Z,42.07
2017-09-19T22:38:26.195Z,50.30
2017-09-19T22:41:04.990Z,44.87
2017-09-19T22:43:40.054Z,44.00
2017-09-19T22:46:10.994Z,47.63
2017-09-19T22:48:41.867Z,40.90
2017-09-19T22:51:13.978Z,44.53
2017-09-19T22:53:48.986Z,40.43
2017-09-19T22:56:24.114Z,41.20
2017-09-19T22:58:55.500Z,52.33
2017-09-19T23:01:26.196Z,46.90
2017-09-19T23:03:56.272Z,39.43
2017-09-19T23:06:27.217Z,37.47
2017-09-19T23:08:58.498Z,41.10
2017-09-19T23:11:29.817Z,38.20
2017-09-19T23:14:07.703Z,38.90
2017-09-19T23:16:44.708Z,39.40
2017-09-19T23:19:17.378Z,39.80
2017-09-19T23:21:57.720Z,40.00
2017-09-19T23:24:34.938Z,40.30
2017-09-19T23:27:28.499Z,38.20
2017-09-19T23:30:09.372Z,38.47
2017-09-19T23:32:46.378Z,36.53
2017-09-19T23:35:17.005Z,38.30
2017-09-19T23:37:48.409Z,36.50
2017-09-19T23:40:19.208Z,36.50
2017-09-19T23:42:58.790Z,36.43
2017-09-19T23:45:30.792Z,37.20
2017-09-19T23:48:02.932Z,39.27
2017-09-19T23:50:37.801Z,41.80
2017-09-19T23:53:08.953Z,35.73
2017-09-19T23:55:40.015Z,37.17
2017-09-19T23:58:10.810Z,38.53
